sensor_id;sensor_type;location;lat;lon;timestamp;P1;durP1;ratioP1;P2;durP2;ratioP2
71856;SDS011;63344;46.980;28.882;2023-03-01T00:01:40;52.88;;;23.40;;
71856;SDS011;63344;46.980;28.882;2023-03-01T00:04:08;49.90;;;23.10;;
71856;SDS011;63344;46.980;28.882;2023-03-01T00:06:36;44.55;;;22.13;;
71856;SDS011;63344;46.980;28.882;2023-03-01T00:09:05;44.90;;;20.27;;
71856;SDS011;63344;46.980;28.882;2023-03-01T00:11:32;49.80;;;22.02;;
71856;SDS011;63344;46.980;28.882;2023-03-01T00:14:01;56.92;;;24.55;;
71856;SDS011;63344;46.980;28.882;2023-03-01T00:16:30;45.47;;;21.25;;
71856;SDS011;63344;46.980;28.882;2023-03-01T00:19:02;45.63;;;20.75;;
71856;SDS011;63344;46.980;28.882;2023-03-01T00:21:29;54.03;;;24.70;;
71856;SDS011;63344;46.980;28.882;2023-03-01T00:23:57;43.92;;;21.50;;
71856;SDS011;63344;46.980;28.882;2023-03-01T00:26:25;51.13;;;22.10;;
71856;SDS011;63344;46.980;28.882;2023-03-01T00:28:53;45.15;;;20.40;;
71856;SDS011;63344;46.980;28.882;2023-03-01T00:31:25;51.25;;;21.65;;
71856;SDS011;63344;46.980;28.882;2023-03-01T00:33:56;47.10;;;23.52;;
71856;SDS011;63344;46.980;28.882;2023-03-01T00:36:26;44.88;;;21.23;;
71856;SDS011;63344;46.980;28.882;2023-03-01T00:38:58;59.42;;;26.08;;
71856;SDS011;63344;46.980;28.882;2023-03-01T00:41:25;46.08;;;22.92;;
71856;SDS011;63344;46.980;28.882;2023-03-01T00:43:53;50.95;;;22.50;;
71856;SDS011;63344;46.980;28.882;2023-03-01T00:46:25;50.22;;;21.80;;
71856;SDS011;63344;46.980;28.882;2023-03-01T00:48:53;48.17;;;20.35;;
71856;SDS011;63344;46.980;28.882;2023-03-01T00:51:22;41.85;;;18.45;;
71856;SDS011;63344;46.980;28.882;2023-03-01T00:53:52;38.67;;;15.95;;
71856;SDS011;63344;46.980;28.882;2023-03-01T00:56:20;29.77;;;13.02;;
71856;SDS011;63344;46.980;28.882;2023-03-01T00:58:48;30.40;;;13.77;;
71856;SDS011;63344;46.980;28.882;2023-03-01T01:01:17;30.50;;;13.10;;
71856;SDS011;63344;46.980;28.882;2023-03-01T01:03:48;29.13;;;12.77;;
71856;SDS011;63344;46.980;28.882;2023-03-01T01:06:16;29.30;;;12.75;;
71856;SDS011;63344;46.980;28.882;2023-03-01T01:09:04;27.95;;;12.82;;
71856;SDS011;63344;46.980;28.882;2023-03-01T01:14:02;27.45;;;11.55;;
71856;SDS011;63344;46.980;28.882;2023-03-01T01:16:30;28.33;;;11.48;;
71856;SDS011;63344;46.980;28.882;2023-03-01T01:18:58;23.42;;;10.52;;
71856;SDS011;63344;46.980;28.882;2023-03-01T01:21:25;32.60;;;14.55;;
71856;SDS011;63344;46.980;28.882;2023-03-01T01:23:54;41.92;;;18.25;;
71856;SDS011;63344;46.980;28.882;2023-03-01T01:26:23;37.97;;;19.63;;
71856;SDS011;63344;46.980;28.882;2023-03-01T01:28:52;40.78;;;18.52;;
71856;SDS011;63344;46.980;28.882;2023-03-01T01:31:19;40.08;;;17.00;;
71856;SDS011;63344;46.980;28.882;2023-03-01T01:33:51;39.15;;;16.60;;
71856;SDS011;63344;46.980;28.882;2023-03-01T01:36:19;36.00;;;16.65;;
71856;SDS011;63344;46.980;28.882;2023-03-01T01:38:47;39.53;;;17.67;;
71856;SDS011;63344;46.980;28.882;2023-03-01T01:41:14;38.95;;;17.40;;
71856;SDS011;63344;46.980;28.882;2023-03-01T01:43:43;39.65;;;17.27;;
71856;SDS011;63344;46.980;28.882;2023-03-01T01:49:07;41.08;;;18.20;;
71856;SDS011;63344;46.980;28.882;2023-03-01T01:51:43;34.53;;;16.58;;
71856;SDS011;63344;46.980;28.882;2023-03-01T01:54:22;49.60;;;21.65;;
71856;SDS011;63344;46.980;28.882;2023-03-01T01:56:55;45.90;;;21.55;;
71856;SDS011;63344;46.980;28.882;2023-03-01T01:59:28;55.30;;;23.85;;
71856;SDS011;63344;46.980;28.882;2023-03-01T02:01:59;61.33;;;28.70;;
71856;SDS011;63344;46.980;28.882;2023-03-01T02:04:29;55.50;;;26.02;;
71856;SDS011;63344;46.980;28.882;2023-03-01T02:07:01;54.83;;;25.52;;
71856;SDS011;63344;46.980;28.882;2023-03-01T02:09:34;75.68;;;33.88;;
71856;SDS011;63344;46.980;28.882;2023-03-01T02:12:02;78.85;;;37.67;;
71856;SDS011;63344;46.980;28.882;2023-03-01T02:14:31;71.28;;;31.50;;
71856;SDS011;63344;46.980;28.882;2023-03-01T02:16:58;64.90;;;29.13;;
71856;SDS011;63344;46.980;28.882;2023-03-01T02:30:24;47.75;;;22.75;;
71856;SDS011;63344;46.980;28.882;2023-03-01T02:32:54;49.60;;;22.85;;
71856;SDS011;63344;46.980;28.882;2023-03-01T02:35:31;48.28;;;22.23;;
71856;SDS011;63344;46.980;28.882;2023-03-01T02:38:06;51.83;;;20.45;;
71856;SDS011;63344;46.980;28.882;2023-03-01T02:40:35;46.38;;;20.13;;
71856;SDS011;63344;46.980;28.882;2023-03-01T02:43:06;46.13;;;20.20;;
71856;SDS011;63344;46.980;28.882;2023-03-01T02:45:37;39.38;;;16.73;;
71856;SDS011;63344;46.980;28.882;2023-03-01T02:48:10;42.38;;;18.85;;
71856;SDS011;63344;46.980;28.882;2023-03-01T02:50:45;37.42;;;18.30;;
71856;SDS011;63344;46.980;28.882;2023-03-01T02:56:26;39.55;;;18.95;;
71856;SDS011;63344;46.980;28.882;2023-03-01T02:58:56;48.53;;;22.45;;
71856;SDS011;63344;46.980;28.882;2023-03-01T03:01:34;41.10;;;18.85;;
71856;SDS011;63344;46.980;28.882;2023-03-01T03:04:13;41.47;;;18.08;;
71856;SDS011;63344;46.980;28.882;2023-03-01T03:06:47;44.35;;;19.77;;
71856;SDS011;63344;46.980;28.882;2023-03-01T03:09:17;37.03;;;19.05;;
71856;SDS011;63344;46.980;28.882;2023-03-01T03:11:46;55.25;;;23.73;;
71856;SDS011;63344;46.980;28.882;2023-03-01T03:14:14;41.83;;;18.48;;
71856;SDS011;63344;46.980;28.882;2023-03-01T03:17:11;49.60;;;19.95;;
71856;SDS011;63344;46.980;28.882;2023-03-01T03:19:39;44.60;;;20.23;;
71856;SDS011;63344;46.980;28.882;2023-03-01T03:22:08;59.65;;;24.65;;
71856;SDS011;63344;46.980;28.882;2023-03-01T03:24:39;51.67;;;23.48;;
71856;SDS011;63344;46.980;28.882;2023-03-01T03:27:08;52.58;;;20.23;;
71856;SDS011;63344;46.980;28.882;2023-03-01T03:29:38;59.35;;;24.92;;
71856;SDS011;63344;46.980;28.882;2023-03-01T03:32:05;50.95;;;21.70;;
71856;SDS011;63344;46.980;28.882;2023-03-01T03:34:33;47.40;;;21.88;;
71856;SDS011;63344;46.980;28.882;2023-03-01T03:37:01;30.38;;;15.57;;
71856;SDS011;63344;46.980;28.882;2023-03-01T03:39:30;51.90;;;20.25;;
71856;SDS011;63344;46.980;28.882;2023-03-01T03:42:01;28.08;;;12.88;;
71856;SDS011;63344;46.980;28.882;2023-03-01T03:44:29;30.77;;;14.52;;
71856;SDS011;63344;46.980;28.882;2023-03-01T03:49:35;38.40;;;17.90;;
71856;SDS011;63344;46.980;28.882;2023-03-01T03:52:03;34.25;;;15.60;;
71856;SDS011;63344;46.980;28.882;2023-03-01T03:54:37;49.60;;;20.13;;
71856;SDS011;63344;46.980;28.882;2023-03-01T03:57:15;51.13;;;22.02;;
71856;SDS011;63344;46.980;28.882;2023-03-01T03:59:43;57.40;;;22.83;;
71856;SDS011;63344;46.980;28.882;2023-03-01T04:02:11;59.22;;;24.85;;
71856;SDS011;63344;46.980;28.882;2023-03-01T04:04:38;50.10;;;21.63;;
71856;SDS011;63344;46.980;28.882;2023-03-01T04:07:31;53.40;;;24.90;;
71856;SDS011;63344;46.980;28.882;2023-03-01T04:10:04;49.10;;;22.38;;
71856;SDS011;63344;46.980;28.882;2023-03-01T04:12:36;49.50;;;20.90;;
71856;SDS011;63344;46.980;28.882;2023-03-01T04:15:04;52.47;;;23.13;;
71856;SDS011;63344;46.980;28.882;2023-03-01T04:17:40;54.92;;;28.30;;
71856;SDS011;63344;46.980;28.882;2023-03-01T04:20:16;53.05;;;21.80;;
71856;SDS011;63344;46.980;28.882;2023-03-01T04:22:45;80.95;;;34.58;;
71856;SDS011;63344;46.980;28.882;2023-03-01T04:25:16;167.52;;;69.15;;
71856;SDS011;63344;46.980;28.882;2023-03-01T04:27:44;120.50;;;53.55;;
71856;SDS011;63344;46.980;28.882;2023-03-01T04:30:12;99.93;;;45.17;;
71856;SDS011;63344;46.980;28.882;2023-03-01T04:32:39;73.38;;;30.67;;
71856;SDS011;63344;46.980;28.882;2023-03-01T04:35:10;73.88;;;31.60;;
71856;SDS011;63344;46.980;28.882;2023-03-01T04:37:38;60.50;;;26.58;;
71856;SDS011;63344;46.980;28.882;2023-03-01T04:40:06;70.65;;;28.50;;
71856;SDS011;63344;46.980;28.882;2023-03-01T04:42:43;31.70;;;15.80;;
71856;SDS011;63344;46.980;28.882;2023-03-01T04:45:10;31.88;;;15.13;;
71856;SDS011;63344;46.980;28.882;2023-03-01T04:47:41;40.67;;;18.70;;
71856;SDS011;63344;46.980;28.882;2023-03-01T04:50:15;29.77;;;13.52;;
71856;SDS011;63344;46.980;28.882;2023-03-01T04:52:43;37.92;;;16.00;;
71856;SDS011;63344;46.980;28.882;2023-03-01T04:55:11;24.00;;;12.38;;
71856;SDS011;63344;46.980;28.882;2023-03-01T04:57:39;33.22;;;14.60;;
71856;SDS011;63344;46.980;28.882;2023-03-01T05:00:07;35.75;;;14.90;;
71856;SDS011;63344;46.980;28.882;2023-03-01T05:02:50;15.00;;;7.50;;
71856;SDS011;63344;46.980;28.882;2023-03-01T05:05:44;20.67;;;8.75;;
71856;SDS011;63344;46.980;28.882;2023-03-01T05:08:11;24.88;;;10.20;;
71856;SDS011;63344;46.980;28.882;2023-03-01T05:10:45;19.20;;;9.48;;
71856;SDS011;63344;46.980;28.882;2023-03-01T05:13:20;19.80;;;9.00;;
71856;SDS011;63344;46.980;28.882;2023-03-01T05:18:31;23.98;;;9.75;;
71856;SDS011;63344;46.980;28.882;2023-03-01T05:21:08;25.58;;;11.20;;
71856;SDS011;63344;46.980;28.882;2023-03-01T05:23:53;21.08;;;10.35;;
71856;SDS011;63344;46.980;28.882;2023-03-01T05:26:23;18.13;;;8.30;;
71856;SDS011;63344;46.980;28.882;2023-03-01T05:28:55;21.02;;;9.35;;
71856;SDS011;63344;46.980;28.882;2023-03-01T05:31:23;19.30;;;7.45;;
71856;SDS011;63344;46.980;28.882;2023-03-01T05:33:51;14.48;;;6.47;;
71856;SDS011;63344;46.980;28.882;2023-03-01T05:36:19;28.65;;;14.10;;
71856;SDS011;63344;46.980;28.882;2023-03-01T05:38:47;39.92;;;12.68;;
71856;SDS011;63344;46.980;28.882;2023-03-01T05:41:17;26.55;;;11.52;;
71856;SDS011;63344;46.980;28.882;2023-03-01T05:43:45;22.83;;;10.35;;
71856;SDS011;63344;46.980;28.882;2023-03-01T05:46:13;27.05;;;12.57;;
71856;SDS011;63344;46.980;28.882;2023-03-01T05:51:10;17.73;;;8.63;;
71856;SDS011;63344;46.980;28.882;2023-03-01T05:53:38;14.02;;;7.10;;
71856;SDS011;63344;46.980;28.882;2023-03-01T05:56:13;21.23;;;9.55;;
71856;SDS011;63344;46.980;28.882;2023-03-01T05:58:40;20.65;;;8.85;;
71856;SDS011;63344;46.980;28.882;2023-03-01T06:01:10;13.00;;;5.53;;
71856;SDS011;63344;46.980;28.882;2023-03-01T06:03:39;18.75;;;7.75;;
71856;SDS011;63344;46.980;28.882;2023-03-01T06:06:06;18.48;;;7.68;;
71856;SDS011;63344;46.980;28.882;2023-03-01T06:08:37;17.10;;;7.50;;
71856;SDS011;63344;46.980;28.882;2023-03-01T06:11:22;15.30;;;7.80;;
71856;SDS011;63344;46.980;28.882;2023-03-01T06:13:49;18.08;;;7.35;;
71856;SDS011;63344;46.980;28.882;2023-03-01T06:16:17;21.55;;;8.23;;
71856;SDS011;63344;46.980;28.882;2023-03-01T06:18:44;10.88;;;6.88;;
71856;SDS011;63344;46.980;28.882;2023-03-01T06:21:11;14.60;;;6.30;;
71856;SDS011;63344;46.980;28.882;2023-03-01T06:23:38;17.08;;;7.85;;
71856;SDS011;63344;46.980;28.882;2023-03-01T06:26:06;24.70;;;9.50;;
71856;SDS011;63344;46.980;28.882;2023-03-01T06:28:34;21.13;;;9.50;;
71856;SDS011;63344;46.980;28.882;2023-03-01T06:31:03;16.38;;;8.77;;
71856;SDS011;63344;46.980;28.882;2023-03-01T06:33:30;18.33;;;8.63;;
71856;SDS011;63344;46.980;28.882;2023-03-01T06:35:57;19.13;;;9.00;;
71856;SDS011;63344;46.980;28.882;2023-03-01T06:38:25;19.52;;;8.10;;
71856;SDS011;63344;46.980;28.882;2023-03-01T06:40:53;22.13;;;10.68;;
71856;SDS011;63344;46.980;28.882;2023-03-01T06:43:23;19.38;;;9.88;;
71856;SDS011;63344;46.980;28.882;2023-03-01T06:45:50;16.48;;;7.40;;
71856;SDS011;63344;46.980;28.882;2023-03-01T06:50:47;17.23;;;7.68;;
71856;SDS011;63344;46.980;28.882;2023-03-01T06:53:14;21.13;;;9.95;;
71856;SDS011;63344;46.980;28.882;2023-03-01T06:55:44;16.63;;;7.53;;
71856;SDS011;63344;46.980;28.882;2023-03-01T06:58:11;20.17;;;9.95;;
71856;SDS011;63344;46.980;28.882;2023-03-01T07:00:39;18.75;;;9.02;;
71856;SDS011;63344;46.980;28.882;2023-03-01T07:03:07;16.25;;;7.85;;
71856;SDS011;63344;46.980;28.882;2023-03-01T07:05:36;17.50;;;9.23;;
71856;SDS011;63344;46.980;28.882;2023-03-01T07:08:03;15.18;;;7.85;;
71856;SDS011;63344;46.980;28.882;2023-03-01T07:10:31;18.35;;;8.32;;
71856;SDS011;63344;46.980;28.882;2023-03-01T07:12:58;20.70;;;7.95;;
71856;SDS011;63344;46.980;28.882;2023-03-01T07:15:28;19.77;;;9.10;;
71856;SDS011;63344;46.980;28.882;2023-03-01T07:17:55;20.60;;;8.73;;
71856;SDS011;63344;46.980;28.882;2023-03-01T07:20:23;17.92;;;7.10;;
71856;SDS011;63344;46.980;28.882;2023-03-01T07:22:52;21.00;;;9.45;;
71856;SDS011;63344;46.980;28.882;2023-03-01T07:25:20;22.20;;;9.55;;
71856;SDS011;63344;46.980;28.882;2023-03-01T07:27:51;20.98;;;9.52;;
71856;SDS011;63344;46.980;28.882;2023-03-01T07:30:47;17.15;;;8.73;;
71856;SDS011;63344;46.980;28.882;2023-03-01T07:33:17;19.75;;;7.90;;
71856;SDS011;63344;46.980;28.882;2023-03-01T07:35:44;18.92;;;8.40;;
71856;SDS011;63344;46.980;28.882;2023-03-01T07:38:11;18.08;;;8.75;;
71856;SDS011;63344;46.980;28.882;2023-03-01T07:40:39;23.38;;;9.50;;
71856;SDS011;63344;46.980;28.882;2023-03-01T07:43:06;9.57;;;5.00;;
71856;SDS011;63344;46.980;28.882;2023-03-01T07:45:33;15.00;;;8.10;;
71856;SDS011;63344;46.980;28.882;2023-03-01T07:48:03;20.30;;;8.63;;
71856;SDS011;63344;46.980;28.882;2023-03-01T07:50:40;12.23;;;6.15;;
71856;SDS011;63344;46.980;28.882;2023-03-01T07:53:08;18.55;;;8.27;;
71856;SDS011;63344;46.980;28.882;2023-03-01T07:55:47;15.93;;;7.25;;
71856;SDS011;63344;46.980;28.882;2023-03-01T07:58:14;19.50;;;7.75;;
71856;SDS011;63344;46.980;28.882;2023-03-01T08:00:41;24.70;;;8.73;;
71856;SDS011;63344;46.980;28.882;2023-03-01T08:03:10;17.15;;;7.40;;
71856;SDS011;63344;46.980;28.882;2023-03-01T08:05:37;17.65;;;6.68;;
71856;SDS011;63344;46.980;28.882;2023-03-01T08:08:05;14.48;;;7.68;;
71856;SDS011;63344;46.980;28.882;2023-03-01T08:10:32;25.92;;;8.02;;
71856;SDS011;63344;46.980;28.882;2023-03-01T08:12:59;15.40;;;7.50;;
71856;SDS011;63344;46.980;28.882;2023-03-01T08:15:26;13.32;;;5.78;;
71856;SDS011;63344;46.980;28.882;2023-03-01T08:17:53;9.15;;;5.05;;
71856;SDS011;63344;46.980;28.882;2023-03-01T08:20:21;10.50;;;4.50;;
71856;SDS011;63344;46.980;28.882;2023-03-01T08:22:51;19.60;;;7.63;;
71856;SDS011;63344;46.980;28.882;2023-03-01T08:25:18;16.98;;;8.05;;
71856;SDS011;63344;46.980;28.882;2023-03-01T08:27:46;15.95;;;6.53;;
71856;SDS011;63344;46.980;28.882;2023-03-01T08:30:13;14.18;;;7.20;;
71856;SDS011;63344;46.980;28.882;2023-03-01T08:32:41;19.10;;;8.77;;
71856;SDS011;63344;46.980;28.882;2023-03-01T08:35:08;16.48;;;7.95;;
71856;SDS011;63344;46.980;28.882;2023-03-01T08:37:35;13.00;;;6.68;;
71856;SDS011;63344;46.980;28.882;2023-03-01T08:40:03;20.95;;;8.00;;
71856;SDS011;63344;46.980;28.882;2023-03-01T08:42:37;12.93;;;7.05;;
71856;SDS011;63344;46.980;28.882;2023-03-01T08:45:05;17.50;;;7.93;;
71856;SDS011;63344;46.980;28.882;2023-03-01T08:47:35;15.82;;;7.43;;
71856;SDS011;63344;46.980;28.882;2023-03-01T08:50:03;14.00;;;6.57;;
71856;SDS011;63344;46.980;28.882;2023-03-01T08:52:59;14.52;;;8.23;;
71856;SDS011;63344;46.980;28.882;2023-03-01T08:55:27;16.80;;;6.85;;
71856;SDS011;63344;46.980;28.882;2023-03-01T08:57:57;15.95;;;8.60;;
71856;SDS011;63344;46.980;28.882;2023-03-01T09:00:41;18.50;;;9.10;;
71856;SDS011;63344;46.980;28.882;2023-03-01T09:03:17;19.45;;;8.23;;
71856;SDS011;63344;46.980;28.882;2023-03-01T09:05:48;16.15;;;8.13;;
71856;SDS011;63344;46.980;28.882;2023-03-01T09:08:42;14.23;;;7.80;;
71856;SDS011;63344;46.980;28.882;2023-03-01T09:11:15;14.85;;;9.27;;
71856;SDS011;63344;46.980;28.882;2023-03-01T09:13:45;16.35;;;9.40;;
71856;SDS011;63344;46.980;28.882;2023-03-01T09:16:17;15.45;;;7.97;;
71856;SDS011;63344;46.980;28.882;2023-03-01T09:18:49;16.20;;;8.48;;
71856;SDS011;63344;46.980;28.882;2023-03-01T09:21:18;11.25;;;5.90;;
71856;SDS011;63344;46.980;28.882;2023-03-01T09:24:04;17.00;;;8.18;;
71856;SDS011;63344;46.980;28.882;2023-03-01T09:26:32;15.23;;;8.45;;
71856;SDS011;63344;46.980;28.882;2023-03-01T09:28:59;13.43;;;8.25;;
71856;SDS011;63344;46.980;28.882;2023-03-01T09:31:27;14.93;;;8.30;;
71856;SDS011;63344;46.980;28.882;2023-03-01T09:33:54;15.18;;;9.02;;
71856;SDS011;63344;46.980;28.882;2023-03-01T09:36:22;14.82;;;8.57;;
71856;SDS011;63344;46.980;28.882;2023-03-01T09:38:52;15.88;;;7.60;;
71856;SDS011;63344;46.980;28.882;2023-03-01T09:46:45;13.07;;;6.30;;
71856;SDS011;63344;46.980;28.882;2023-03-01T09:49:29;12.88;;;6.90;;
71856;SDS011;63344;46.980;28.882;2023-03-01T09:52:06;13.60;;;6.85;;
71856;SDS011;63344;46.980;28.882;2023-03-01T09:54:58;12.75;;;6.43;;
71856;SDS011;63344;46.980;28.882;2023-03-01T09:57:29;13.85;;;7.68;;
71856;SDS011;63344;46.980;28.882;2023-03-01T10:00:09;14.82;;;8.43;;
71856;SDS011;63344;46.980;28.882;2023-03-01T10:08:02;13.48;;;9.25;;
71856;SDS011;63344;46.980;28.882;2023-03-01T10:10:36;17.85;;;7.78;;
71856;SDS011;63344;46.980;28.882;2023-03-01T10:13:26;20.67;;;9.07;;
71856;SDS011;63344;46.980;28.882;2023-03-01T10:19:32;16.95;;;7.82;;
71856;SDS011;63344;46.980;28.882;2023-03-01T10:22:09;13.40;;;8.15;;
71856;SDS011;63344;46.980;28.882;2023-03-01T10:25:08;16.50;;;9.00;;
71856;SDS011;63344;46.980;28.882;2023-03-01T10:32:50;15.77;;;8.55;;
71856;SDS011;63344;46.980;28.882;2023-03-01T10:35:21;15.52;;;7.07;;
71856;SDS011;63344;46.980;28.882;2023-03-01T10:40:53;14.05;;;7.50;;
71856;SDS011;63344;46.980;28.882;2023-03-01T10:43:27;11.73;;;6.43;;
71856;SDS011;63344;46.980;28.882;2023-03-01T10:46:50;11.10;;;6.32;;
71856;SDS011;63344;46.980;28.882;2023-03-01T10:49:06;13.77;;;7.78;;
71856;SDS011;63344;46.980;28.882;2023-03-01T10:51:34;14.48;;;8.02;;
71856;SDS011;63344;46.980;28.882;2023-03-01T10:54:01;15.27;;;7.88;;
71856;SDS011;63344;46.980;28.882;2023-03-01T10:56:30;13.63;;;7.75;;
71856;SDS011;63344;46.980;28.882;2023-03-01T10:59:48;14.35;;;6.78;;
71856;SDS011;63344;46.980;28.882;2023-03-01T11:02:17;20.67;;;8.10;;
71856;SDS011;63344;46.980;28.882;2023-03-01T11:07:47;17.52;;;9.75;;
71856;SDS011;63344;46.980;28.882;2023-03-01T11:10:26;17.20;;;7.38;;
71856;SDS011;63344;46.980;28.882;2023-03-01T11:13:05;14.57;;;8.10;;
71856;SDS011;63344;46.980;28.882;2023-03-01T11:15:35;11.65;;;6.65;;
71856;SDS011;63344;46.980;28.882;2023-03-01T11:18:03;12.70;;;6.53;;
71856;SDS011;63344;46.980;28.882;2023-03-01T11:20:45;11.40;;;6.60;;
71856;SDS011;63344;46.980;28.882;2023-03-01T11:23:14;14.20;;;8.07;;
71856;SDS011;63344;46.980;28.882;2023-03-01T11:25:43;12.80;;;6.53;;
71856;SDS011;63344;46.980;28.882;2023-03-01T11:28:30;15.70;;;6.63;;
71856;SDS011;63344;46.980;28.882;2023-03-01T11:31:03;14.60;;;7.60;;
71856;SDS011;63344;46.980;28.882;2023-03-01T11:33:46;14.07;;;7.80;;
71856;SDS011;63344;46.980;28.882;2023-03-01T11:36:52;14.30;;;7.57;;
71856;SDS011;63344;46.980;28.882;2023-03-01T11:39:18;18.70;;;7.97;;
71856;SDS011;63344;46.980;28.882;2023-03-01T11:42:28;10.32;;;5.63;;
71856;SDS011;63344;46.980;28.882;2023-03-01T11:44:55;10.25;;;5.95;;
71856;SDS011;63344;46.980;28.882;2023-03-01T11:53:01;14.38;;;7.72;;
71856;SDS011;63344;46.980;28.882;2023-03-01T11:58:36;12.35;;;6.82;;
71856;SDS011;63344;46.980;28.882;2023-03-01T12:01:48;14.15;;;7.45;;
71856;SDS011;63344;46.980;28.882;2023-03-01T12:10:26;15.73;;;6.95;;
71856;SDS011;63344;46.980;28.882;2023-03-01T12:37:47;15.07;;;7.40;;
71856;SDS011;63344;46.980;28.882;2023-03-01T12:46:10;14.05;;;7.53;;
71856;SDS011;63344;46.980;28.882;2023-03-01T12:51:53;13.57;;;8.00;;
71856;SDS011;63344;46.980;28.882;2023-03-01T12:54:26;15.23;;;7.72;;
71856;SDS011;63344;46.980;28.882;2023-03-01T12:57:01;12.68;;;7.68;;
71856;SDS011;63344;46.980;28.882;2023-03-01T12:59:43;14.52;;;7.63;;
71856;SDS011;63344;46.980;28.882;2023-03-01T13:02:32;15.68;;;8.50;;
71856;SDS011;63344;46.980;28.882;2023-03-01T13:05:19;12.65;;;6.78;;
71856;SDS011;63344;46.980;28.882;2023-03-01T13:10:29;14.43;;;7.03;;
71856;SDS011;63344;46.980;28.882;2023-03-01T13:13:08;18.17;;;8.48;;
71856;SDS011;63344;46.980;28.882;2023-03-01T13:15:40;18.63;;;8.95;;
71856;SDS011;63344;46.980;28.882;2023-03-01T13:31:11;16.58;;;8.07;;
71856;SDS011;63344;46.980;28.882;2023-03-01T13:33:58;19.77;;;8.75;;
71856;SDS011;63344;46.980;28.882;2023-03-01T13:44:20;13.88;;;8.05;;
71856;SDS011;63344;46.980;28.882;2023-03-01T13:46:56;18.77;;;7.43;;
71856;SDS011;63344;46.980;28.882;2023-03-01T13:49:31;13.85;;;8.15;;
71856;SDS011;63344;46.980;28.882;2023-03-01T13:58:16;16.90;;;8.93;;
71856;SDS011;63344;46.980;28.882;2023-03-01T14:00:54;13.57;;;6.90;;
71856;SDS011;63344;46.980;28.882;2023-03-01T14:03:45;11.05;;;6.60;;
71856;SDS011;63344;46.980;28.882;2023-03-01T14:06:13;14.85;;;7.85;;
71856;SDS011;63344;46.980;28.882;2023-03-01T14:08:47;18.67;;;7.68;;
71856;SDS011;63344;46.980;28.882;2023-03-01T14:17:00;10.32;;;5.03;;
71856;SDS011;63344;46.980;28.882;2023-03-01T14:19:33;9.52;;;4.70;;
71856;SDS011;63344;46.980;28.882;2023-03-01T14:22:18;10.98;;;5.15;;
71856;SDS011;63344;46.980;28.882;2023-03-01T14:27:34;14.02;;;6.75;;
71856;SDS011;63344;46.980;28.882;2023-03-01T14:32:39;12.88;;;6.63;;
71856;SDS011;63344;46.980;28.882;2023-03-01T14:35:20;23.42;;;7.38;;
71856;SDS011;63344;46.980;28.882;2023-03-01T14:37:50;14.60;;;7.00;;
71856;SDS011;63344;46.980;28.882;2023-03-01T14:40:28;10.68;;;5.45;;
71856;SDS011;63344;46.980;28.882;2023-03-01T14:42:56;16.42;;;8.20;;
71856;SDS011;63344;46.980;28.882;2023-03-01T14:45:27;12.60;;;6.32;;
71856;SDS011;63344;46.980;28.882;2023-03-01T14:48:02;15.07;;;6.05;;
71856;SDS011;63344;46.980;28.882;2023-03-01T14:50:47;15.32;;;7.07;;
71856;SDS011;63344;46.980;28.882;2023-03-01T14:53:20;14.25;;;7.05;;
71856;SDS011;63344;46.980;28.882;2023-03-01T14:55:52;9.73;;;5.35;;
71856;SDS011;63344;46.980;28.882;2023-03-01T14:58:25;14.57;;;7.32;;
71856;SDS011;63344;46.980;28.882;2023-03-01T15:00:56;17.33;;;6.90;;
71856;SDS011;63344;46.980;28.882;2023-03-01T15:06:07;16.60;;;7.85;;
71856;SDS011;63344;46.980;28.882;2023-03-01T15:08:36;11.05;;;6.75;;
71856;SDS011;63344;46.980;28.882;2023-03-01T15:13:50;16.65;;;8.05;;
71856;SDS011;63344;46.980;28.882;2023-03-01T15:16:19;15.55;;;8.00;;
71856;SDS011;63344;46.980;28.882;2023-03-01T15:19:05;19.55;;;8.10;;
71856;SDS011;63344;46.980;28.882;2023-03-01T15:21:34;13.93;;;7.00;;
71856;SDS011;63344;46.980;28.882;2023-03-01T15:26:42;17.42;;;8.40;;
71856;SDS011;63344;46.980;28.882;2023-03-01T15:29:19;13.77;;;7.03;;
71856;SDS011;63344;46.980;28.882;2023-03-01T15:34:57;16.75;;;7.10;;
71856;SDS011;63344;46.980;28.882;2023-03-01T15:37:45;13.00;;;7.50;;
71856;SDS011;63344;46.980;28.882;2023-03-01T15:40:20;14.73;;;7.32;;
71856;SDS011;63344;46.980;28.882;2023-03-01T15:42:51;13.70;;;6.97;;
71856;SDS011;63344;46.980;28.882;2023-03-01T15:45:23;12.20;;;6.28;;
71856;SDS011;63344;46.980;28.882;2023-03-01T15:50:29;16.88;;;7.55;;
71856;SDS011;63344;46.980;28.882;2023-03-01T15:53:04;15.50;;;8.45;;
71856;SDS011;63344;46.980;28.882;2023-03-01T15:55:35;17.67;;;9.68;;
71856;SDS011;63344;46.980;28.882;2023-03-01T15:58:08;23.50;;;10.32;;
71856;SDS011;63344;46.980;28.882;2023-03-01T16:00:39;19.60;;;8.85;;
71856;SDS011;63344;46.980;28.882;2023-03-01T16:03:20;22.08;;;9.65;;
71856;SDS011;63344;46.980;28.882;2023-03-01T16:06:05;22.42;;;10.02;;
71856;SDS011;63344;46.980;28.882;2023-03-01T16:08:32;22.73;;;9.23;;
71856;SDS011;63344;46.980;28.882;2023-03-01T16:11:09;18.08;;;8.02;;
71856;SDS011;63344;46.980;28.882;2023-03-01T16:13:44;22.58;;;9.02;;
71856;SDS011;63344;46.980;28.882;2023-03-01T16:16:13;18.83;;;7.95;;
71856;SDS011;63344;46.980;28.882;2023-03-01T16:18:43;20.92;;;8.63;;
71856;SDS011;63344;46.980;28.882;2023-03-01T16:21:20;23.17;;;11.77;;
71856;SDS011;63344;46.980;28.882;2023-03-01T16:23:49;22.23;;;10.07;;
71856;SDS011;63344;46.980;28.882;2023-03-01T16:26:18;22.38;;;10.25;;
71856;SDS011;63344;46.980;28.882;2023-03-01T16:28:47;23.08;;;10.25;;
71856;SDS011;63344;46.980;28.882;2023-03-01T16:31:18;22.65;;;10.68;;
71856;SDS011;63344;46.980;28.882;2023-03-01T16:33:48;21.10;;;9.55;;
71856;SDS011;63344;46.980;28.882;2023-03-01T16:36:25;20.00;;;9.00;;
71856;SDS011;63344;46.980;28.882;2023-03-01T16:38:57;23.38;;;10.25;;
71856;SDS011;63344;46.980;28.882;2023-03-01T16:41:27;17.98;;;8.45;;
71856;SDS011;63344;46.980;28.882;2023-03-01T16:43:57;18.52;;;9.63;;
71856;SDS011;63344;46.980;28.882;2023-03-01T16:46:26;19.35;;;8.95;;
71856;SDS011;63344;46.980;28.882;2023-03-01T16:48:55;25.33;;;11.32;;
71856;SDS011;63344;46.980;28.882;2023-03-01T16:51:23;27.50;;;11.57;;
71856;SDS011;63344;46.980;28.882;2023-03-01T16:53:51;19.48;;;9.25;;
71856;SDS011;63344;46.980;28.882;2023-03-01T16:56:19;24.77;;;15.05;;
71856;SDS011;63344;46.980;28.882;2023-03-01T16:58:46;23.27;;;11.80;;
71856;SDS011;63344;46.980;28.882;2023-03-01T17:01:15;25.77;;;11.48;;
71856;SDS011;63344;46.980;28.882;2023-03-01T17:03:44;23.38;;;11.43;;
71856;SDS011;63344;46.980;28.882;2023-03-01T17:06:22;20.50;;;10.05;;
71856;SDS011;63344;46.980;28.882;2023-03-01T17:08:51;25.17;;;11.73;;
71856;SDS011;63344;46.980;28.882;2023-03-01T17:11:19;29.30;;;12.20;;
71856;SDS011;63344;46.980;28.882;2023-03-01T17:13:47;20.80;;;9.60;;
71856;SDS011;63344;46.980;28.882;2023-03-01T17:16:17;24.27;;;11.10;;
71856;SDS011;63344;46.980;28.882;2023-03-01T17:18:46;25.35;;;12.52;;
71856;SDS011;63344;46.980;28.882;2023-03-01T17:21:15;24.30;;;11.52;;
71856;SDS011;63344;46.980;28.882;2023-03-01T17:23:46;19.77;;;9.80;;